Terminal Aerodrome Forecast
Issued by NWS

Home | Current Version | Previous Version | Text Only | Print | Product List | Glossary On
Versions: 1 2 3 4 5 6 7 8 9 10 11 12 13 14 15 16 17 18 19 20 21 22 23
502
FTUS41 KPBZ 221721
TAFLBE
TAF
KLBE 221721Z 2218/2318 11005KT P6SM BKN090
     FM230500 10010KT P6SM -RA OVC045
     FM230700 10012G22KT 3SM -RA OVC035
     FM230900 09012G22KT 3SM -RA OVC015
     FM231400 09012G22KT 2SM -RA OVC015=

USA.gov is the U.S. government's official web portal to all federal, state and local government web resources and services.